sensor_id;sensor_type;location;lat;lon;timestamp;pressure;altitude;pressure_sealevel;temperature;humidity
38400;BME280;24180;42.676;23.320;2023-05-07T00:00:36;94981.44;;;11.14;100.00
38400;BME280;24180;42.676;23.320;2023-05-07T00:03:01;94954.34;;;10.99;100.00
38400;BME280;24180;42.676;23.320;2023-05-07T00:05:27;94960.78;;;10.85;100.00
38400;BME280;24180;42.676;23.320;2023-05-07T00:07:52;94991.75;;;10.77;100.00
38400;BME280;24180;42.676;23.320;2023-05-07T00:10:18;94980.81;;;10.93;100.00
38400;BME280;24180;42.676;23.320;2023-05-07T00:12:44;94989.28;;;10.85;100.00
38400;BME280;24180;42.676;23.320;2023-05-07T00:15:10;94971.44;;;10.72;100.00
38400;BME280;24180;42.676;23.320;2023-05-07T00:17:35;94945.81;;;10.60;100.00
38400;BME280;24180;42.676;23.320;2023-05-07T00:20:01;94971.97;;;10.76;100.00
38400;BME280;24180;42.676;23.320;2023-05-07T00:22:27;94974.84;;;10.83;100.00
38400;BME280;24180;42.676;23.320;2023-05-07T00:24:55;94937.25;;;10.59;100.00
38400;BME280;24180;42.676;23.320;2023-05-07T00:27:20;94931.16;;;10.51;100.00
38400;BME280;24180;42.676;23.320;2023-05-07T00:29:46;94964.25;;;10.66;100.00
38400;BME280;24180;42.676;23.320;2023-05-07T00:32:11;94916.59;;;10.30;100.00
38400;BME280;24180;42.676;23.320;2023-05-07T00:34:36;94948.28;;;10.52;100.00
38400;BME280;24180;42.676;23.320;2023-05-07T00:37:02;94928.84;;;10.38;100.00
38400;BME280;24180;42.676;23.320;2023-05-07T00:39:27;94939.03;;;10.40;100.00
38400;BME280;24180;42.676;23.320;2023-05-07T00:41:53;94974.59;;;10.57;100.00
38400;BME280;24180;42.676;23.320;2023-05-07T00:44:18;94941.38;;;10.33;100.00
38400;BME280;24180;42.676;23.320;2023-05-07T00:46:44;94972.16;;;10.46;100.00
38400;BME280;24180;42.676;23.320;2023-05-07T00:49:10;94924.88;;;10.05;100.00
38400;BME280;24180;42.676;23.320;2023-05-07T00:51:36;94957.97;;;10.40;100.00
38400;BME280;24180;42.676;23.320;2023-05-07T00:54:02;94952.94;;;10.29;100.00
38400;BME280;24180;42.676;23.320;2023-05-07T00:56:28;94970.09;;;10.40;100.00
38400;BME280;24180;42.676;23.320;2023-05-07T00:58:54;94966.56;;;10.41;100.00
38400;BME280;24180;42.676;23.320;2023-05-07T01:01:20;94937.84;;;10.24;100.00
38400;BME280;24180;42.676;23.320;2023-05-07T01:03:45;94966.16;;;10.36;100.00
38400;BME280;24180;42.676;23.320;2023-05-07T01:06:12;94914.66;;;9.94;100.00
38400;BME280;24180;42.676;23.320;2023-05-07T01:08:39;94967.00;;;10.26;100.00
38400;BME280;24180;42.676;23.320;2023-05-07T01:11:06;94971.06;;;10.19;100.00
38400;BME280;24180;42.676;23.320;2023-05-07T01:13:33;94955.22;;;10.13;100.00
38400;BME280;24180;42.676;23.320;2023-05-07T01:15:59;94934.25;;;9.87;100.00
38400;BME280;24180;42.676;23.320;2023-05-07T01:18:25;94970.75;;;10.13;100.00
38400;BME280;24180;42.676;23.320;2023-05-07T01:20:52;94951.97;;;10.01;100.00
38400;BME280;24180;42.676;23.320;2023-05-07T01:23:18;94941.91;;;9.98;100.00
38400;BME280;24180;42.676;23.320;2023-05-07T01:25:51;94962.06;;;10.14;100.00
38400;BME280;24180;42.676;23.320;2023-05-07T01:28:17;94970.50;;;10.16;100.00
38400;BME280;24180;42.676;23.320;2023-05-07T01:30:55;94959.88;;;10.09;100.00
38400;BME280;24180;42.676;23.320;2023-05-07T01:33:25;94952.53;;;10.14;100.00
38400;BME280;24180;42.676;23.320;2023-05-07T01:35:53;94963.13;;;10.11;100.00
38400;BME280;24180;42.676;23.320;2023-05-07T01:38:21;94961.94;;;10.15;100.00
38400;BME280;24180;42.676;23.320;2023-05-07T01:40:47;94921.75;;;10.02;100.00
38400;BME280;24180;42.676;23.320;2023-05-07T01:43:12;94962.06;;;10.14;100.00
38400;BME280;24180;42.676;23.320;2023-05-07T01:45:38;94933.31;;;10.07;100.00
38400;BME280;24180;42.676;23.320;2023-05-07T01:48:05;94950.75;;;10.05;100.00
38400;BME280;24180;42.676;23.320;2023-05-07T01:50:32;94910.97;;;9.77;100.00
38400;BME280;24180;42.676;23.320;2023-05-07T01:52:58;94944.59;;;9.97;100.00
38400;BME280;24180;42.676;23.320;2023-05-07T01:55:24;94920.38;;;9.78;100.00
38400;BME280;24180;42.676;23.320;2023-05-07T01:57:49;94924.44;;;9.81;100.00
38400;BME280;24180;42.676;23.320;2023-05-07T02:00:15;94933.59;;;9.95;100.00
38400;BME280;24180;42.676;23.320;2023-05-07T02:02:41;94921.16;;;9.79;100.00
38400;BME280;24180;42.676;23.320;2023-05-07T02:05:06;94939.41;;;9.87;100.00
38400;BME280;24180;42.676;23.320;2023-05-07T02:07:32;94934.78;;;9.81;100.00
38400;BME280;24180;42.676;23.320;2023-05-07T02:09:57;94929.50;;;9.82;100.00
38400;BME280;24180;42.676;23.320;2023-05-07T02:12:23;94926.59;;;9.76;100.00
38400;BME280;24180;42.676;23.320;2023-05-07T02:14:49;94914.34;;;9.68;100.00
38400;BME280;24180;42.676;23.320;2023-05-07T02:17:14;94912.44;;;9.61;100.00
38400;BME280;24180;42.676;23.320;2023-05-07T02:19:40;94891.50;;;9.54;100.00
38400;BME280;24180;42.676;23.320;2023-05-07T02:22:06;94914.75;;;9.64;100.00
38400;BME280;24180;42.676;23.320;2023-05-07T02:24:31;94922.00;;;9.70;100.00
38400;BME280;24180;42.676;23.320;2023-05-07T02:26:57;94886.00;;;9.48;100.00
38400;BME280;24180;42.676;23.320;2023-05-07T02:29:22;94934.22;;;9.68;100.00
38400;BME280;24180;42.676;23.320;2023-05-07T02:31:47;94920.63;;;9.75;100.00
38400;BME280;24180;42.676;23.320;2023-05-07T02:34:18;94927.16;;;9.70;100.00
38400;BME280;24180;42.676;23.320;2023-05-07T02:36:43;94898.69;;;9.60;100.00
38400;BME280;24180;42.676;23.320;2023-05-07T02:39:09;94918.72;;;9.77;100.00
38400;BME280;24180;42.676;23.320;2023-05-07T02:41:34;94920.34;;;9.69;100.00
38400;BME280;24180;42.676;23.320;2023-05-07T02:44:00;94887.94;;;9.46;100.00
38400;BME280;24180;42.676;23.320;2023-05-07T02:46:25;94924.00;;;9.57;100.00
38400;BME280;24180;42.676;23.320;2023-05-07T02:48:51;94915.94;;;9.40;100.00
38400;BME280;24180;42.676;23.320;2023-05-07T02:51:20;94932.94;;;9.43;100.00
38400;BME280;24180;42.676;23.320;2023-05-07T02:53:46;94918.63;;;9.29;100.00
38400;BME280;24180;42.676;23.320;2023-05-07T02:56:11;94919.88;;;9.45;100.00
38400;BME280;24180;42.676;23.320;2023-05-07T02:58:37;94934.19;;;9.49;100.00
38400;BME280;24180;42.676;23.320;2023-05-07T03:01:05;94940.56;;;9.45;100.00
38400;BME280;24180;42.676;23.320;2023-05-07T03:03:30;94910.72;;;9.31;100.00
38400;BME280;24180;42.676;23.320;2023-05-07T03:05:56;94908.03;;;9.32;100.00
38400;BME280;24180;42.676;23.320;2023-05-07T03:08:21;94913.75;;;9.36;100.00
38400;BME280;24180;42.676;23.320;2023-05-07T03:10:47;94926.81;;;9.34;100.00
38400;BME280;24180;42.676;23.320;2023-05-07T03:13:12;94914.00;;;9.33;100.00
38400;BME280;24180;42.676;23.320;2023-05-07T03:15:37;94920.41;;;9.29;100.00
38400;BME280;24180;42.676;23.320;2023-05-07T03:18:03;94949.81;;;9.47;100.00
38400;BME280;24180;42.676;23.320;2023-05-07T03:20:28;94959.53;;;9.55;100.00
38400;BME280;24180;42.676;23.320;2023-05-07T03:22:55;94944.78;;;9.46;100.00
38400;BME280;24180;42.676;23.320;2023-05-07T03:25:20;94933.50;;;9.47;100.00
38400;BME280;24180;42.676;23.320;2023-05-07T03:27:46;94947.22;;;9.47;100.00
38400;BME280;24180;42.676;23.320;2023-05-07T03:30:12;94947.53;;;9.54;100.00
38400;BME280;24180;42.676;23.320;2023-05-07T03:32:37;94944.38;;;9.40;100.00
38400;BME280;24180;42.676;23.320;2023-05-07T03:35:03;94928.69;;;9.32;100.00
38400;BME280;24180;42.676;23.320;2023-05-07T03:37:29;94931.00;;;9.35;100.00
38400;BME280;24180;42.676;23.320;2023-05-07T03:39:54;94960.59;;;9.52;100.00
38400;BME280;24180;42.676;23.320;2023-05-07T03:42:20;94938.25;;;9.42;100.00
38400;BME280;24180;42.676;23.320;2023-05-07T03:44:45;94971.63;;;9.64;100.00
38400;BME280;24180;42.676;23.320;2023-05-07T03:47:10;94939.47;;;9.37;100.00
38400;BME280;24180;42.676;23.320;2023-05-07T03:49:36;94963.72;;;9.56;100.00
38400;BME280;24180;42.676;23.320;2023-05-07T03:52:02;94961.69;;;9.50;100.00
38400;BME280;24180;42.676;23.320;2023-05-07T03:54:27;94952.97;;;9.51;100.00
38400;BME280;24180;42.676;23.320;2023-05-07T03:56:52;94975.59;;;9.58;100.00
38400;BME280;24180;42.676;23.320;2023-05-07T03:59:18;94974.53;;;9.70;100.00
38400;BME280;24180;42.676;23.320;2023-05-07T04:01:43;94962.25;;;9.63;100.00
38400;BME280;24180;42.676;23.320;2023-05-07T04:04:08;94962.50;;;9.50;100.00
38400;BME280;24180;42.676;23.320;2023-05-07T04:06:34;94989.06;;;9.62;100.00
38400;BME280;24180;42.676;23.320;2023-05-07T04:08:59;94990.16;;;9.69;100.00
38400;BME280;24180;42.676;23.320;2023-05-07T04:11:25;94974.16;;;9.45;100.00
38400;BME280;24180;42.676;23.320;2023-05-07T04:13:50;94995.75;;;9.74;100.00
38400;BME280;24180;42.676;23.320;2023-05-07T04:16:16;94991.66;;;9.71;100.00
38400;BME280;24180;42.676;23.320;2023-05-07T04:18:41;94981.31;;;9.62;100.00
38400;BME280;24180;42.676;23.320;2023-05-07T04:21:17;95010.97;;;9.67;100.00
38400;BME280;24180;42.676;23.320;2023-05-07T04:23:43;95017.06;;;9.57;100.00
38400;BME280;24180;42.676;23.320;2023-05-07T04:26:08;95021.56;;;9.64;100.00
38400;BME280;24180;42.676;23.320;2023-05-07T04:28:34;95023.53;;;9.81;100.00
38400;BME280;24180;42.676;23.320;2023-05-07T04:30:59;95020.91;;;9.72;100.00
38400;BME280;24180;42.676;23.320;2023-05-07T04:33:25;95027.63;;;9.84;100.00
38400;BME280;24180;42.676;23.320;2023-05-07T04:35:51;95028.00;;;9.79;100.00
38400;BME280;24180;42.676;23.320;2023-05-07T04:38:16;95030.91;;;9.86;100.00
38400;BME280;24180;42.676;23.320;2023-05-07T04:40:43;95043.19;;;9.94;100.00
38400;BME280;24180;42.676;23.320;2023-05-07T04:43:09;95030.44;;;9.71;100.00
38400;BME280;24180;42.676;23.320;2023-05-07T04:45:35;95026.63;;;9.66;100.00
38400;BME280;24180;42.676;23.320;2023-05-07T04:48:01;95005.84;;;9.77;100.00
38400;BME280;24180;42.676;23.320;2023-05-07T04:50:26;95033.25;;;9.99;100.00
38400;BME280;24180;42.676;23.320;2023-05-07T04:52:52;95036.78;;;10.07;100.00
38400;BME280;24180;42.676;23.320;2023-05-07T04:55:17;95035.63;;;10.21;100.00
38400;BME280;24180;42.676;23.320;2023-05-07T04:57:43;95036.88;;;10.26;100.00
38400;BME280;24180;42.676;23.320;2023-05-07T05:00:08;95026.66;;;10.35;100.00
38400;BME280;24180;42.676;23.320;2023-05-07T05:02:34;95040.00;;;10.40;100.00
38400;BME280;24180;42.676;23.320;2023-05-07T05:05:00;95003.47;;;10.23;100.00
38400;BME280;24180;42.676;23.320;2023-05-07T05:07:27;95008.66;;;10.33;100.00
38400;BME280;24180;42.676;23.320;2023-05-07T05:09:53;95032.81;;;10.62;100.00
38400;BME280;24180;42.676;23.320;2023-05-07T05:12:19;95026.38;;;10.66;100.00
38400;BME280;24180;42.676;23.320;2023-05-07T05:14:45;95018.47;;;10.68;100.00
38400;BME280;24180;42.676;23.320;2023-05-07T05:17:10;94995.03;;;10.69;100.00
38400;BME280;24180;42.676;23.320;2023-05-07T05:19:35;95004.97;;;10.74;100.00
38400;BME280;24180;42.676;23.320;2023-05-07T05:22:01;95001.03;;;10.70;100.00
38400;BME280;24180;42.676;23.320;2023-05-07T05:24:28;95027.16;;;11.05;100.00
38400;BME280;24180;42.676;23.320;2023-05-07T05:26:54;95024.25;;;11.18;100.00
38400;BME280;24180;42.676;23.320;2023-05-07T05:29:19;95019.75;;;11.20;100.00
38400;BME280;24180;42.676;23.320;2023-05-07T05:31:45;95039.22;;;11.34;100.00
38400;BME280;24180;42.676;23.320;2023-05-07T05:34:10;95028.97;;;11.32;100.00
38400;BME280;24180;42.676;23.320;2023-05-07T05:36:35;95017.53;;;11.35;100.00
38400;BME280;24180;42.676;23.320;2023-05-07T05:39:01;95034.66;;;11.55;100.00
38400;BME280;24180;42.676;23.320;2023-05-07T05:41:26;95040.47;;;11.66;100.00
38400;BME280;24180;42.676;23.320;2023-05-07T05:43:52;95036.38;;;11.73;100.00
38400;BME280;24180;42.676;23.320;2023-05-07T05:46:17;95021.75;;;11.72;100.00
38400;BME280;24180;42.676;23.320;2023-05-07T05:48:43;95044.34;;;11.90;100.00
38400;BME280;24180;42.676;23.320;2023-05-07T05:51:08;95034.09;;;11.88;100.00
38400;BME280;24180;42.676;23.320;2023-05-07T05:53:33;95035.94;;;12.05;100.00
38400;BME280;24180;42.676;23.320;2023-05-07T05:55:59;95036.56;;;12.35;100.00
38400;BME280;24180;42.676;23.320;2023-05-07T05:58:24;95040.22;;;12.42;100.00
38400;BME280;24180;42.676;23.320;2023-05-07T06:00:50;95031.97;;;12.64;100.00
38400;BME280;24180;42.676;23.320;2023-05-07T06:03:17;95045.19;;;12.71;100.00
38400;BME280;24180;42.676;23.320;2023-05-07T06:05:43;95023.06;;;12.66;100.00
38400;BME280;24180;42.676;23.320;2023-05-07T06:08:08;95042.50;;;12.80;100.00
38400;BME280;24180;42.676;23.320;2023-05-07T06:10:36;95026.84;;;12.72;100.00
38400;BME280;24180;42.676;23.320;2023-05-07T06:13:01;95045.59;;;13.01;100.00
38400;BME280;24180;42.676;23.320;2023-05-07T06:15:27;95040.69;;;13.16;100.00
38400;BME280;24180;42.676;23.320;2023-05-07T06:17:52;95045.03;;;13.33;100.00
38400;BME280;24180;42.676;23.320;2023-05-07T06:20:17;95016.34;;;13.43;100.00
38400;BME280;24180;42.676;23.320;2023-05-07T06:22:43;95041.94;;;13.55;100.00
38400;BME280;24180;42.676;23.320;2023-05-07T06:25:08;95037.28;;;13.67;100.00
38400;BME280;24180;42.676;23.320;2023-05-07T06:27:34;94986.75;;;13.44;100.00
38400;BME280;24180;42.676;23.320;2023-05-07T06:29:59;95012.59;;;13.79;100.00
38400;BME280;24180;42.676;23.320;2023-05-07T06:32:25;95019.66;;;13.95;100.00
38400;BME280;24180;42.676;23.320;2023-05-07T06:34:50;95036.00;;;14.21;100.00
38400;BME280;24180;42.676;23.320;2023-05-07T06:37:16;95031.47;;;14.23;100.00
38400;BME280;24180;42.676;23.320;2023-05-07T06:39:41;95008.16;;;14.14;100.00
38400;BME280;24180;42.676;23.320;2023-05-07T06:42:06;95027.63;;;14.43;100.00
38400;BME280;24180;42.676;23.320;2023-05-07T06:44:32;95033.50;;;14.53;100.00
38400;BME280;24180;42.676;23.320;2023-05-07T06:46:57;95008.59;;;14.51;100.00
38400;BME280;24180;42.676;23.320;2023-05-07T06:49:23;95028.16;;;14.63;100.00
38400;BME280;24180;42.676;23.320;2023-05-07T06:51:48;95020.00;;;14.74;100.00
38400;BME280;24180;42.676;23.320;2023-05-07T06:54:14;95016.75;;;14.88;100.00
38400;BME280;24180;42.676;23.320;2023-05-07T06:56:42;95011.22;;;15.08;100.00
38400;BME280;24180;42.676;23.320;2023-05-07T06:59:07;95012.16;;;15.23;100.00
38400;BME280;24180;42.676;23.320;2023-05-07T07:01:33;95020.94;;;15.38;100.00
38400;BME280;24180;42.676;23.320;2023-05-07T07:03:58;95024.38;;;15.38;100.00
38400;BME280;24180;42.676;23.320;2023-05-07T07:06:24;94993.91;;;15.23;100.00
38400;BME280;24180;42.676;23.320;2023-05-07T07:08:50;95009.03;;;15.52;100.00
38400;BME280;24180;42.676;23.320;2023-05-07T07:11:16;95018.47;;;15.61;100.00
38400;BME280;24180;42.676;23.320;2023-05-07T07:13:41;95019.06;;;15.79;100.00
38400;BME280;24180;42.676;23.320;2023-05-07T07:16:08;94992.50;;;15.75;100.00
38400;BME280;24180;42.676;23.320;2023-05-07T07:18:33;95019.88;;;15.87;100.00
38400;BME280;24180;42.676;23.320;2023-05-07T07:20:58;95020.22;;;15.84;100.00
38400;BME280;24180;42.676;23.320;2023-05-07T07:23:24;95000.25;;;15.91;100.00
38400;BME280;24180;42.676;23.320;2023-05-07T07:25:50;95013.84;;;16.18;100.00
38400;BME280;24180;42.676;23.320;2023-05-07T07:28:34;95011.75;;;16.44;100.00
38400;BME280;24180;42.676;23.320;2023-05-07T07:30:59;94981.16;;;16.22;100.00
38400;BME280;24180;42.676;23.320;2023-05-07T07:33:25;94979.63;;;16.35;100.00
38400;BME280;24180;42.676;23.320;2023-05-07T07:35:50;94998.16;;;16.49;100.00
38400;BME280;24180;42.676;23.320;2023-05-07T07:38:15;94985.53;;;16.60;100.00
38400;BME280;24180;42.676;23.320;2023-05-07T07:40:41;95011.13;;;16.88;100.00
38400;BME280;24180;42.676;23.320;2023-05-07T07:43:06;94991.56;;;16.83;100.00
38400;BME280;24180;42.676;23.320;2023-05-07T07:45:32;94986.44;;;16.67;100.00
38400;BME280;24180;42.676;23.320;2023-05-07T07:47:57;95007.22;;;17.06;100.00
38400;BME280;24180;42.676;23.320;2023-05-07T07:50:22;95006.47;;;17.35;100.00
38400;BME280;24180;42.676;23.320;2023-05-07T07:52:48;94983.34;;;17.39;100.00
38400;BME280;24180;42.676;23.320;2023-05-07T07:55:14;95001.53;;;17.69;100.00
38400;BME280;24180;42.676;23.320;2023-05-07T07:57:43;95005.34;;;17.67;100.00
38400;BME280;24180;42.676;23.320;2023-05-07T08:00:09;95014.84;;;17.97;100.00
38400;BME280;24180;42.676;23.320;2023-05-07T08:02:34;95016.78;;;18.10;100.00
38400;BME280;24180;42.676;23.320;2023-05-07T08:05:00;94995.31;;;18.00;100.00
38400;BME280;24180;42.676;23.320;2023-05-07T08:07:25;95005.78;;;18.00;100.00
38400;BME280;24180;42.676;23.320;2023-05-07T08:09:50;94987.91;;;17.89;100.00
38400;BME280;24180;42.676;23.320;2023-05-07T08:12:16;94962.34;;;17.76;100.00
38400;BME280;24180;42.676;23.320;2023-05-07T08:14:41;94998.53;;;18.16;100.00
38400;BME280;24180;42.676;23.320;2023-05-07T08:17:07;95009.50;;;18.41;100.00
38400;BME280;24180;42.676;23.320;2023-05-07T08:19:34;95004.41;;;18.54;100.00
38400;BME280;24180;42.676;23.320;2023-05-07T08:22:00;94973.75;;;18.55;100.00
38400;BME280;24180;42.676;23.320;2023-05-07T08:24:25;94998.44;;;18.82;100.00
38400;BME280;24180;42.676;23.320;2023-05-07T08:26:51;94982.06;;;18.80;100.00
38400;BME280;24180;42.676;23.320;2023-05-07T08:29:16;94993.69;;;19.13;100.00
38400;BME280;24180;42.676;23.320;2023-05-07T08:31:41;94998.00;;;19.27;100.00
38400;BME280;24180;42.676;23.320;2023-05-07T08:34:07;94995.28;;;19.14;98.70
38400;BME280;24180;42.676;23.320;2023-05-07T08:36:33;94974.81;;;19.31;98.43
38400;BME280;24180;42.676;23.320;2023-05-07T08:38:59;94982.47;;;19.26;95.12
38400;BME280;24180;42.676;23.320;2023-05-07T08:41:24;94969.56;;;19.31;96.12
38400;BME280;24180;42.676;23.320;2023-05-07T08:43:50;94996.38;;;19.47;94.93
38400;BME280;24180;42.676;23.320;2023-05-07T08:46:17;94992.19;;;19.53;92.63
38400;BME280;24180;42.676;23.320;2023-05-07T08:48:44;94993.16;;;19.45;90.15
38400;BME280;24180;42.676;23.320;2023-05-07T08:51:12;94975.47;;;19.39;91.57
38400;BME280;24180;42.676;23.320;2023-05-07T08:53:42;94989.59;;;19.59;90.41
38400;BME280;24180;42.676;23.320;2023-05-07T08:56:11;94956.06;;;19.61;86.73
38400;BME280;24180;42.676;23.320;2023-05-07T08:58:37;94977.47;;;19.99;85.59
38400;BME280;24180;42.676;23.320;2023-05-07T09:01:08;94974.84;;;20.06;83.17
38400;BME280;24180;42.676;23.320;2023-05-07T09:03:34;94950.78;;;20.02;84.16
38400;BME280;24180;42.676;23.320;2023-05-07T09:05:59;94957.09;;;20.15;85.20
38400;BME280;24180;42.676;23.320;2023-05-07T09:08:26;94978.50;;;20.46;83.37
38400;BME280;24180;42.676;23.320;2023-05-07T09:10:52;94940.13;;;20.17;80.89
38400;BME280;24180;42.676;23.320;2023-05-07T09:13:19;94967.06;;;20.26;79.12
38400;BME280;24180;42.676;23.320;2023-05-07T09:15:44;94942.31;;;20.07;78.07
38400;BME280;24180;42.676;23.320;2023-05-07T09:18:10;94935.06;;;20.09;79.78
38400;BME280;24180;42.676;23.320;2023-05-07T09:20:40;94937.38;;;19.91;80.36
38400;BME280;24180;42.676;23.320;2023-05-07T09:23:07;94958.91;;;20.14;78.21
38400;BME280;24180;42.676;23.320;2023-05-07T09:25:34;94960.13;;;20.12;74.03
38400;BME280;24180;42.676;23.320;2023-05-07T09:28:00;94942.91;;;20.02;73.45
38400;BME280;24180;42.676;23.320;2023-05-07T09:30:30;94928.34;;;20.06;74.34
38400;BME280;24180;42.676;23.320;2023-05-07T09:32:57;94928.56;;;20.05;76.62
38400;BME280;24180;42.676;23.320;2023-05-07T09:35:22;94944.00;;;20.28;75.95
38400;BME280;24180;42.676;23.320;2023-05-07T09:37:53;94914.84;;;20.16;74.30
38400;BME280;24180;42.676;23.320;2023-05-07T09:42:48;94912.34;;;20.75;73.82
38400;BME280;24180;42.676;23.320;2023-05-07T09:45:14;94934.63;;;20.86;69.66
38400;BME280;24180;42.676;23.320;2023-05-07T09:47:42;94924.47;;;20.96;66.96
38400;BME280;24180;42.676;23.320;2023-05-07T09:50:10;94917.22;;;20.98;68.34
38400;BME280;24180;42.676;23.320;2023-05-07T09:52:36;94909.31;;;21.24;68.19
38400;BME280;24180;42.676;23.320;2023-05-07T09:55:02;94915.94;;;21.46;67.37
38400;BME280;24180;42.676;23.320;2023-05-07T09:57:29;94897.84;;;21.63;57.73
38400;BME280;24180;42.676;23.320;2023-05-07T09:59:56;94920.69;;;22.02;57.21
38400;BME280;24180;42.676;23.320;2023-05-07T10:02:23;94934.47;;;22.42;52.91
38400;BME280;24180;42.676;23.320;2023-05-07T10:04:51;94927.44;;;22.92;49.81
38400;BME280;24180;42.676;23.320;2023-05-07T10:07:17;94917.88;;;23.22;49.53
38400;BME280;24180;42.676;23.320;2023-05-07T10:09:43;94896.09;;;24.00;47.58
38400;BME280;24180;42.676;23.320;2023-05-07T10:12:09;94895.06;;;26.63;41.56
38400;BME280;24180;42.676;23.320;2023-05-07T10:14:35;94905.63;;;29.25;35.33
38400;BME280;24180;42.676;23.320;2023-05-07T10:17:02;94889.59;;;31.12;31.23
38400;BME280;24180;42.676;23.320;2023-05-07T10:19:29;94877.50;;;31.75;29.80
38400;BME280;24180;42.676;23.320;2023-05-07T10:21:56;94895.94;;;32.56;28.22
38400;BME280;24180;42.676;23.320;2023-05-07T10:24:31;94891.63;;;34.62;26.36
38400;BME280;24180;42.676;23.320;2023-05-07T10:27:00;94895.13;;;34.81;25.85
38400;BME280;24180;42.676;23.320;2023-05-07T10:34:47;94892.13;;;27.81;32.64
38400;BME280;24180;42.676;23.320;2023-05-07T10:37:14;94886.34;;;26.11;36.02
38400;BME280;24180;42.676;23.320;2023-05-07T10:39:40;94851.09;;;26.56;34.88
38400;BME280;24180;42.676;23.320;2023-05-07T10:42:10;94880.19;;;26.34;35.56
38400;BME280;24180;42.676;23.320;2023-05-07T10:44:36;94888.66;;;25.09;37.53
38400;BME280;24180;42.676;23.320;2023-05-07T10:47:06;94895.97;;;23.95;40.13
38400;BME280;24180;42.676;23.320;2023-05-07T10:49:33;94875.53;;;24.02;42.36
38400;BME280;24180;42.676;23.320;2023-05-07T10:52:13;94882.41;;;26.25;37.12
38400;BME280;24180;42.676;23.320;2023-05-07T10:54:43;94859.44;;;28.56;32.86
38400;BME280;24180;42.676;23.320;2023-05-07T10:57:33;94877.63;;;30.12;30.28
38400;BME280;24180;42.676;23.320;2023-05-07T11:05:31;94865.16;;;29.75;29.20
38400;BME280;24180;42.676;23.320;2023-05-07T11:07:59;94868.66;;;28.22;31.92
38400;BME280;24180;42.676;23.320;2023-05-07T11:10:54;94877.78;;;29.43;30.62
38400;BME280;24180;42.676;23.320;2023-05-07T11:13:46;94864.69;;;32.31;27.44
38400;BME280;24180;42.676;23.320;2023-05-07T11:16:20;94863.22;;;34.74;25.00
38400;BME280;24180;42.676;23.320;2023-05-07T11:18:55;94847.00;;;33.95;24.88
38400;BME280;24180;42.676;23.320;2023-05-07T11:21:38;94870.97;;;32.12;26.51
38400;BME280;24180;42.676;23.320;2023-05-07T11:24:05;94861.81;;;33.68;25.45
38400;BME280;24180;42.676;23.320;2023-05-07T11:26:45;94860.81;;;33.30;24.36
38400;BME280;24180;42.676;23.320;2023-05-07T11:29:19;94867.88;;;34.03;24.00
38400;BME280;24180;42.676;23.320;2023-05-07T11:31:51;94857.66;;;33.52;24.44
38400;BME280;24180;42.676;23.320;2023-05-07T11:34:22;94855.88;;;32.75;24.24
38400;BME280;24180;42.676;23.320;2023-05-07T11:36:48;94855.19;;;32.54;24.29
38400;BME280;24180;42.676;23.320;2023-05-07T11:39:30;94832.38;;;34.86;22.67
38400;BME280;24180;42.676;23.320;2023-05-07T11:42:01;94842.28;;;35.22;22.37
38400;BME280;24180;42.676;23.320;2023-05-07T11:45:00;94824.09;;;34.82;23.59
38400;BME280;24180;42.676;23.320;2023-05-07T11:47:26;94828.72;;;36.15;21.82
38400;BME280;24180;42.676;23.320;2023-05-07T11:49:53;94828.59;;;35.92;21.79
38400;BME280;24180;42.676;23.320;2023-05-07T11:52:20;94847.75;;;35.17;22.09
38400;BME280;24180;42.676;23.320;2023-05-07T11:54:55;94829.25;;;34.22;22.95
38400;BME280;24180;42.676;23.320;2023-05-07T11:57:22;94847.53;;;37.14;21.61
38400;BME280;24180;42.676;23.320;2023-05-07T11:59:48;94836.38;;;39.33;19.57
38400;BME280;24180;42.676;23.320;2023-05-07T12:02:14;94822.66;;;39.38;19.33
38400;BME280;24180;42.676;23.320;2023-05-07T12:04:40;94833.66;;;39.42;19.04
38400;BME280;24180;42.676;23.320;2023-05-07T12:07:11;94839.84;;;36.85;20.67
38400;BME280;24180;42.676;23.320;2023-05-07T12:09:38;94823.88;;;37.41;21.00
38400;BME280;24180;42.676;23.320;2023-05-07T12:12:04;94799.34;;;37.29;20.01
38400;BME280;24180;42.676;23.320;2023-05-07T12:14:29;94815.88;;;39.79;19.31
38400;BME280;24180;42.676;23.320;2023-05-07T12:16:55;94812.03;;;41.66;17.91
38400;BME280;24180;42.676;23.320;2023-05-07T12:19:21;94816.25;;;39.98;17.98
38400;BME280;24180;42.676;23.320;2023-05-07T12:21:47;94812.13;;;40.71;17.87
38400;BME280;24180;42.676;23.320;2023-05-07T12:24:14;94808.81;;;39.86;18.10
38400;BME280;24180;42.676;23.320;2023-05-07T12:26:40;94796.78;;;37.94;18.65
38400;BME280;24180;42.676;23.320;2023-05-07T12:29:06;94779.16;;;37.27;18.73
38400;BME280;24180;42.676;23.320;2023-05-07T12:31:31;94804.97;;;37.72;18.71
38400;BME280;24180;42.676;23.320;2023-05-07T12:33:57;94775.22;;;39.61;16.97
38400;BME280;24180;42.676;23.320;2023-05-07T12:36:22;94790.84;;;37.14;18.49
38400;BME280;24180;42.676;23.320;2023-05-07T12:38:49;94803.81;;;33.67;21.32
38400;BME280;24180;42.676;23.320;2023-05-07T12:41:15;94799.88;;;31.65;22.47
38400;BME280;24180;42.676;23.320;2023-05-07T12:43:44;94787.09;;;30.20;25.01
38400;BME280;24180;42.676;23.320;2023-05-07T12:46:11;94794.84;;;29.55;25.47
38400;BME280;24180;42.676;23.320;2023-05-07T12:48:43;94774.13;;;28.83;26.17
38400;BME280;24180;42.676;23.320;2023-05-07T12:51:09;94775.19;;;28.50;26.80
38400;BME280;24180;42.676;23.320;2023-05-07T12:53:39;94754.25;;;27.78;27.90
38400;BME280;24180;42.676;23.320;2023-05-07T12:56:05;94761.47;;;27.61;27.92